createdAt,value
2022-09-25T00:00:12.161Z,100575.17
2022-09-25T00:02:42.345Z,100575.12
2022-09-25T00:05:12.806Z,100572.45
2022-09-25T00:07:42.992Z,100576.16
2022-09-25T00:10:13.288Z,100572.27
2022-09-25T00:12:44.168Z,100571.05
2022-09-25T00:15:14.886Z,100571.25
2022-09-25T00:17:45.148Z,100572.02
2022-09-25T00:20:17.023Z,100573.50
2022-09-25T00:22:47.536Z,100569.91
2022-09-25T00:25:20.304Z,100567.56
2022-09-25T00:27:54.118Z,100565.20
2022-09-25T00:30:24.321Z,100564.03
2022-09-25T00:32:54.435Z,100562.09
2022-09-25T00:35:24.579Z,100561.56
2022-09-25T00:37:54.744Z,100555.88
2022-09-25T00:40:25.196Z,100557.15
2022-09-25T00:42:55.734Z,100553.35
2022-09-25T00:45:26.114Z,100551.27
2022-09-25T00:48:00.831Z,100551.00
2022-09-25T00:50:37.492Z,100555.16
2022-09-25T00:53:12.732Z,100555.32
2022-09-25T00:55:45.044Z,100557.21
2022-09-25T00:58:18.987Z,100554.80
2022-09-25T01:00:49.266Z,100555.43
2022-09-25T01:03:21.186Z,100552.55
2022-09-25T01:05:52.809Z,100552.27
2022-09-25T01:08:26.998Z,100549.48
2022-09-25T01:10:57.170Z,100547.90
2022-09-25T01:13:29.705Z,100553.23
2022-09-25T01:16:08.223Z,100551.84
2022-09-25T01:18:52.042Z,100550.46
2022-09-25T01:21:38.509Z,100546.92
2022-09-25T01:24:25.538Z,100545.48
2022-09-25T01:27:18.004Z,100548.69
2022-09-25T01:29:54.760Z,100546.84
2022-09-25T01:32:32.308Z,100546.09
2022-09-25T01:35:08.739Z,100546.66
2022-09-25T01:37:43.863Z,100547.30
2022-09-25T01:40:18.041Z,100546.89
2022-09-25T01:42:53.811Z,100543.40
2022-09-25T01:45:29.894Z,100547.90
2022-09-25T01:48:02.488Z,100547.06
2022-09-25T01:50:37.549Z,100541.39
2022-09-25T01:53:14.674Z,100536.75
2022-09-25T01:55:49.721Z,100538.38
2022-09-25T01:58:24.855Z,100534.86
2022-09-25T02:01:00.476Z,100534.40
2022-09-25T02:03:37.023Z,100536.05
2022-09-25T02:06:16.154Z,100535.30
2022-09-25T02:08:50.633Z,100535.44
2022-09-25T02:11:21.141Z,100537.52
2022-09-25T02:13:54.593Z,100537.08
2022-09-25T02:16:31.874Z,100540.79
2022-09-25T02:19:20.112Z,100540.89
2022-09-25T02:21:57.188Z,100533.73
2022-09-25T02:24:34.878Z,100532.21
2022-09-25T02:27:04.508Z,100532.93
2022-09-25T02:29:35.512Z,100537.59
2022-09-25T02:32:09.428Z,100533.11
2022-09-25T02:34:40.562Z,100532.33
2022-09-25T02:37:14.449Z,100534.16
2022-09-25T02:39:46.751Z,100530.92
2022-09-25T02:42:33.090Z,100533.56
2022-09-25T02:45:16.583Z,100539.69
2022-09-25T02:47:58.257Z,100541.09
2022-09-25T02:50:33.929Z,100540.56
2022-09-25T02:53:10.113Z,100538.64
2022-09-25T02:55:46.421Z,100534.63
2022-09-25T02:58:22.708Z,100536.83
2022-09-25T03:00:56.354Z,100536.81
2022-09-25T03:03:28.924Z,100533.12
2022-09-25T03:05:59.983Z,100532.77
2022-09-25T03:08:41.435Z,100524.04
2022-09-25T03:11:13.797Z,100527.35
2022-09-25T03:13:45.537Z,100529.59
2022-09-25T03:16:22.357Z,100529.59
2022-09-25T03:18:52.839Z,100530.69
2022-09-25T03:21:22.999Z,100530.13
2022-09-25T03:23:53.445Z,100527.14
2022-09-25T03:26:24.273Z,100527.30
2022-09-25T03:28:55.424Z,100527.90
2022-09-25T03:31:25.588Z,100524.66
2022-09-25T03:33:56.534Z,100526.91
2022-09-25T03:36:28.307Z,100524.54
2022-09-25T03:38:59.899Z,100525.86
2022-09-25T03:41:31.736Z,100517.79
2022-09-25T03:44:02.641Z,100525.05
2022-09-25T03:46:34.751Z,100526.38
2022-09-25T03:49:05.454Z,100527.78
2022-09-25T03:51:36.120Z,100527.94
2022-09-25T03:54:06.392Z,100521.44
2022-09-25T03:56:36.636Z,100519.52
2022-09-25T03:59:07.177Z,100519.11
2022-09-25T04:01:37.910Z,100517.20
2022-09-25T04:04:08.229Z,100513.58
2022-09-25T04:06:38.980Z,100513.80
2022-09-25T04:09:09.195Z,100513.00
2022-09-25T04:11:39.337Z,100514.86
2022-09-25T04:14:12.593Z,100516.84
2022-09-25T04:16:43.386Z,100511.30
2022-09-25T04:19:15.426Z,100513.89
2022-09-25T04:21:45.845Z,100513.39
2022-09-25T04:24:33.825Z,100513.02
2022-09-25T04:27:04.021Z,100513.04
2022-09-25T04:29:34.593Z,100512.61
2022-09-25T04:32:22.853Z,100510.36
2022-09-25T04:34:53.071Z,100509.71
2022-09-25T04:37:23.275Z,100508.66
2022-09-25T04:39:53.492Z,100506.15
2022-09-25T04:42:24.993Z,100505.73
2022-09-25T04:44:56.928Z,100503.70
2022-09-25T04:47:30.104Z,100510.27
2022-09-25T04:50:00.275Z,100513.62
2022-09-25T04:52:31.751Z,100518.09
2022-09-25T04:55:03.125Z,100518.21
2022-09-25T04:57:57.300Z,100519.19
2022-09-25T05:00:24.380Z,100520.77
2022-09-25T05:02:54.587Z,100513.38
2022-09-25T05:05:30.552Z,100517.15
2022-09-25T05:08:02.414Z,100514.83
2022-09-25T05:10:34.973Z,100518.13
2022-09-25T05:13:06.391Z,100521.30
2022-09-25T05:15:37.266Z,100519.83
2022-09-25T05:18:12.727Z,100520.52
2022-09-25T05:20:43.247Z,100522.46
2022-09-25T05:23:13.514Z,100521.36
2022-09-25T05:25:43.704Z,100519.65
2022-09-25T05:28:14.679Z,100518.02
2022-09-25T05:30:44.849Z,100520.92
2022-09-25T05:33:14.991Z,100519.77
2022-09-25T05:35:45.093Z,100517.15
2022-09-25T05:38:15.529Z,100518.36
2022-09-25T05:40:45.916Z,100520.42
2022-09-25T05:43:16.092Z,100521.69
2022-09-25T05:45:54.268Z,100524.16
2022-09-25T05:48:25.400Z,100520.41
2022-09-25T05:50:56.491Z,100520.77
2022-09-25T05:53:26.911Z,100519.73
2022-09-25T05:55:59.020Z,100520.08
2022-09-25T05:58:31.100Z,100518.71
2022-09-25T06:01:05.583Z,100514.71
2022-09-25T06:03:36.125Z,100518.67
2022-09-25T06:06:06.961Z,100517.58
2022-09-25T06:08:37.417Z,100514.88
2022-09-25T06:11:09.969Z,100517.30
2022-09-25T06:13:48.568Z,100518.42
2022-09-25T06:16:23.037Z,100513.77
2022-09-25T06:18:53.655Z,100514.04
2022-09-25T06:21:23.903Z,100509.95
2022-09-25T06:23:55.954Z,100511.35
2022-09-25T06:26:26.190Z,100511.77
2022-09-25T06:29:00.991Z,100512.45
2022-09-25T06:31:33.204Z,100508.69
2022-09-25T06:34:04.362Z,100509.35
2022-09-25T06:36:34.661Z,100510.88
2022-09-25T06:39:05.024Z,100509.80
2022-09-25T06:41:36.110Z,100514.04
2022-09-25T06:44:09.186Z,100513.38
2022-09-25T06:46:39.640Z,100512.11
2022-09-25T06:49:13.153Z,100511.52
2022-09-25T06:51:43.775Z,100515.66
2022-09-25T06:54:13.978Z,100515.04
2022-09-25T06:56:44.387Z,100517.09
2022-09-25T06:59:14.757Z,100522.59
2022-09-25T07:01:44.969Z,100520.67
2022-09-25T07:04:15.665Z,100521.42
2022-09-25T07:06:45.816Z,100521.20
2022-09-25T07:09:15.904Z,100524.27
2022-09-25T07:11:47.226Z,100525.47
2022-09-25T07:14:17.428Z,100525.04
2022-09-25T07:16:47.909Z,100523.56
2022-09-25T07:19:18.121Z,100525.73
2022-09-25T07:21:48.767Z,100528.54
2022-09-25T07:24:18.869Z,100522.91
2022-09-25T07:26:49.659Z,100521.25
2022-09-25T07:29:20.821Z,100521.27
2022-09-25T07:31:50.982Z,100522.92
2022-09-25T07:34:21.526Z,100522.17
2022-09-25T07:36:52.875Z,100527.02
2022-09-25T07:39:23.555Z,100529.63
2022-09-25T07:41:56.722Z,100531.56
2022-09-25T07:44:30.303Z,100536.02
2022-09-25T07:47:03.854Z,100538.27
2022-09-25T07:49:34.946Z,100538.56
2022-09-25T07:52:06.624Z,100540.10
2022-09-25T07:54:37.759Z,100537.81
2022-09-25T07:57:08.533Z,100540.46
2022-09-25T07:59:38.701Z,100539.35
2022-09-25T08:02:10.342Z,100538.41
2022-09-25T08:04:41.019Z,100540.59
2022-09-25T08:07:12.707Z,100539.52
2022-09-25T08:09:43.207Z,100542.25
2022-09-25T08:12:14.985Z,100541.08
2022-09-25T08:14:45.353Z,100541.05
2022-09-25T08:17:15.978Z,100550.75
2022-09-25T08:19:46.184Z,100545.17
2022-09-25T08:22:16.336Z,100547.21
2022-09-25T08:24:46.986Z,100542.24
2022-09-25T08:27:18.065Z,100541.13
2022-09-25T08:29:48.752Z,100543.48
2022-09-25T08:32:18.873Z,100542.53
2022-09-25T08:34:49.452Z,100544.50
2022-09-25T08:37:20.625Z,100543.93
2022-09-25T08:39:51.250Z,100544.18
2022-09-25T08:42:30.453Z,100542.34
2022-09-25T08:45:22.409Z,100543.56
2022-09-25T08:48:13.026Z,100542.54
2022-09-25T08:50:43.233Z,100542.92
2022-09-25T08:53:25.446Z,100543.66
2022-09-25T08:56:12.904Z,100549.63
2022-09-25T08:58:47.019Z,100549.42
2022-09-25T09:01:21.158Z,100549.84
2022-09-25T09:03:57.398Z,100553.79
2022-09-25T09:06:30.591Z,100555.51
2022-09-25T09:09:07.348Z,100554.94
2022-09-25T09:11:42.728Z,100560.02
2022-09-25T09:14:18.343Z,100556.87
2022-09-25T09:16:55.649Z,100555.94
2022-09-25T09:19:26.942Z,100554.15
2022-09-25T09:22:04.406Z,100557.22
2022-09-25T09:24:53.121Z,100557.85
2022-09-25T09:27:36.221Z,100559.04
2022-09-25T09:30:14.576Z,100557.73
2022-09-25T09:33:05.108Z,100557.50
2022-09-25T09:35:45.976Z,100559.06
2022-09-25T09:38:28.374Z,100555.39
2022-09-25T09:41:18.312Z,100558.67
2022-09-25T09:44:07.094Z,100555.20
2022-09-25T09:46:48.647Z,100554.66
2022-09-25T09:49:29.720Z,100554.34
2022-09-25T09:52:05.010Z,100551.73
2022-09-25T09:54:42.629Z,100551.14
2022-09-25T09:57:20.908Z,100548.58
2022-09-25T09:59:55.058Z,100550.39
2022-09-25T10:02:35.152Z,100545.70
2022-09-25T10:05:13.017Z,100541.68
2022-09-25T10:07:45.458Z,100542.20
2022-09-25T10:10:17.836Z,100544.91
2022-09-25T10:12:51.313Z,100543.27
2022-09-25T10:15:31.674Z,100541.45
2022-09-25T10:18:04.601Z,100541.67
2022-09-25T10:20:41.718Z,100538.30
2022-09-25T10:23:23.188Z,100540.13
2022-09-25T10:25:56.047Z,100539.51
2022-09-25T10:28:30.332Z,100538.83
2022-09-25T10:31:02.451Z,100543.04
2022-09-25T10:33:34.448Z,100541.91
2022-09-25T10:36:04.801Z,100546.34
2022-09-25T10:38:42.020Z,100544.30
2022-09-25T10:41:14.721Z,100540.92
2022-09-25T10:43:56.311Z,100541.73
2022-09-25T10:46:54.884Z,100545.23
2022-09-25T10:49:44.336Z,100541.02
2022-09-25T10:52:18.574Z,100540.99
2022-09-25T10:54:48.772Z,100541.38
2022-09-25T10:57:34.182Z,100540.95
2022-09-25T11:00:08.434Z,100537.91
2022-09-25T11:02:41.643Z,100539.61
2022-09-25T11:05:19.479Z,100539.92
2022-09-25T11:07:54.928Z,100540.92
2022-09-25T11:10:27.818Z,100542.45
2022-09-25T11:12:59.217Z,100546.20
2022-09-25T11:15:29.815Z,100543.38
2022-09-25T11:18:00.086Z,100543.36
2022-09-25T11:20:32.814Z,100540.83
2022-09-25T11:23:32.316Z,100539.89
2022-09-25T11:26:10.368Z,100537.41
2022-09-25T11:28:47.684Z,100536.77
2022-09-25T11:31:27.506Z,100537.40
2022-09-25T11:34:05.458Z,100537.02
2022-09-25T11:36:42.294Z,100539.46
2022-09-25T11:39:42.839Z,100531.23
2022-09-25T11:42:20.021Z,100532.08
2022-09-25T11:45:01.379Z,100530.25
2022-09-25T11:47:38.623Z,100526.58
2022-09-25T11:50:17.838Z,100525.69
2022-09-25T11:52:59.741Z,100523.73
2022-09-25T11:56:04.453Z,100522.09
2022-09-25T11:58:45.281Z,100514.42
2022-09-25T12:01:30.226Z,100516.60
2022-09-25T12:04:19.403Z,100514.85
2022-09-25T12:07:01.683Z,100514.02
2022-09-25T12:09:53.530Z,100508.66
2022-09-25T12:12:32.409Z,100512.78
2022-09-25T12:15:14.325Z,100515.15
2022-09-25T12:17:54.648Z,100514.08
2022-09-25T12:20:31.157Z,100513.27
2022-09-25T12:23:16.991Z,100511.66
2022-09-25T12:26:04.158Z,100510.98
2022-09-25T12:28:49.973Z,100509.73
2022-09-25T12:31:38.057Z,100503.60
2022-09-25T12:34:21.546Z,100503.80
2022-09-25T12:36:58.093Z,100504.59
2022-09-25T12:39:40.499Z,100504.54
2022-09-25T12:42:17.669Z,100506.50
2022-09-25T12:44:55.386Z,100502.94
2022-09-25T12:47:37.717Z,100500.13
2022-09-25T12:50:14.324Z,100500.02
2022-09-25T12:52:51.264Z,100498.95
2022-09-25T12:55:28.547Z,100498.23
2022-09-25T12:58:21.274Z,100495.48
2022-09-25T13:01:03.596Z,100497.71
2022-09-25T13:03:48.168Z,100495.20
2022-09-25T13:06:29.017Z,100491.89
2022-09-25T13:09:13.581Z,100489.09
2022-09-25T13:11:48.774Z,100488.23
2022-09-25T13:14:28.638Z,100481.15
2022-09-25T13:17:01.149Z,100478.08
2022-09-25T13:19:35.107Z,100476.48
2022-09-25T13:22:08.466Z,100478.58
2022-09-25T13:24:47.327Z,100476.02
2022-09-25T13:27:22.603Z,100474.64
2022-09-25T13:29:59.226Z,100471.17
2022-09-25T13:32:34.818Z,100469.74
2022-09-25T13:35:08.878Z,100471.89
2022-09-25T13:37:40.198Z,100469.10
2022-09-25T13:40:36.913Z,100469.22
2022-09-25T13:43:22.826Z,100470.04
2022-09-25T13:46:26.152Z,100470.18
2022-09-25T13:49:16.575Z,100465.68
2022-09-25T13:51:47.607Z,100468.27
2022-09-25T13:54:29.182Z,100467.66
2022-09-25T13:56:59.869Z,100461.55
2022-09-25T13:59:42.418Z,100467.23
2022-09-25T14:02:47.444Z,100466.48
2022-09-25T14:05:21.576Z,100463.86
2022-09-25T14:07:57.981Z,100464.78
2022-09-25T14:10:28.919Z,100457.43
2022-09-25T14:13:03.274Z,100453.80
2022-09-25T14:15:40.363Z,100448.07
2022-09-25T14:18:17.469Z,100445.07
2022-09-25T14:20:50.383Z,100443.25
2022-09-25T14:23:29.144Z,100438.73
2022-09-25T14:26:06.064Z,100436.20
2022-09-25T14:28:46.025Z,100430.55
2022-09-25T14:31:34.964Z,100428.83
2022-09-25T14:34:23.696Z,100424.95
2022-09-25T14:37:06.118Z,100426.95
2022-09-25T14:39:43.940Z,100427.04
2022-09-25T14:42:31.194Z,100428.86
2022-09-25T14:45:27.645Z,100431.31
2022-09-25T14:48:00.837Z,100423.30
2022-09-25T14:50:33.899Z,100416.59
2022-09-25T14:53:12.550Z,100412.80
2022-09-25T14:55:47.259Z,100405.79
2022-09-25T14:58:22.130Z,100405.22
2022-09-25T15:00:56.402Z,100399.05
2022-09-25T15:03:33.783Z,100398.81
2022-09-25T15:06:04.413Z,100400.52
2022-09-25T15:08:39.870Z,100400.64
2022-09-25T15:11:16.266Z,100396.21
2022-09-25T15:13:46.869Z,100398.46
2022-09-25T15:16:38.708Z,100398.91
2022-09-25T15:19:17.962Z,100392.63
2022-09-25T15:21:50.866Z,100393.46
2022-09-25T15:24:27.606Z,100390.55
2022-09-25T15:27:03.876Z,100384.63
2022-09-25T15:29:36.528Z,100391.84
2022-09-25T15:32:07.628Z,100388.11
2022-09-25T15:34:37.766Z,100390.18
2022-09-25T15:37:20.867Z,100388.65
2022-09-25T15:39:51.092Z,100386.70
2022-09-25T15:42:21.586Z,100385.65
2022-09-25T15:44:54.165Z,100386.64
2022-09-25T15:47:53.812Z,100385.16
2022-09-25T15:50:27.962Z,100386.23
2022-09-25T15:53:01.022Z,100389.09
2022-09-25T15:55:32.653Z,100393.98
2022-09-25T15:58:13.756Z,100393.71
2022-09-25T16:01:16.952Z,100390.55
2022-09-25T16:04:09.951Z,100390.86
2022-09-25T16:06:45.594Z,100385.16
2022-09-25T16:09:33.606Z,100383.52
2022-09-25T16:12:28.897Z,100382.42
2022-09-25T16:14:59.535Z,100379.48
2022-09-25T16:17:34.398Z,100378.05
2022-09-25T16:20:29.512Z,100381.31
2022-09-25T16:23:01.544Z,100377.30
2022-09-25T16:25:34.358Z,100374.77
2022-09-25T16:28:07.963Z,100375.54
2022-09-25T16:30:38.542Z,100375.13
2022-09-25T16:33:26.150Z,100376.27
2022-09-25T16:36:12.871Z,100379.73
2022-09-25T16:39:11.230Z,100375.96
2022-09-25T16:41:46.153Z,100378.68
2022-09-25T16:44:20.488Z,100378.15
2022-09-25T16:47:12.938Z,100382.07
2022-09-25T16:49:44.974Z,100386.39
2022-09-25T16:52:21.787Z,100387.73
2022-09-25T16:54:54.704Z,100387.67
2022-09-25T16:57:27.720Z,100384.19
2022-09-25T16:59:59.050Z,100383.89
2022-09-25T17:02:35.864Z,100383.98
2022-09-25T17:05:09.678Z,100385.88
2022-09-25T17:07:39.999Z,100384.13
2022-09-25T17:10:15.137Z,100383.90
2022-09-25T17:12:51.270Z,100386.73
2022-09-25T17:15:29.362Z,100382.98
2022-09-25T17:18:01.902Z,100382.67
2022-09-25T17:20:32.616Z,100376.88
2022-09-25T17:23:02.875Z,100377.59
2022-09-25T17:25:45.637Z,100380.03
2022-09-25T17:28:17.147Z,100381.31
2022-09-25T17:30:47.856Z,100379.88
2022-09-25T17:33:20.447Z,100382.55
2022-09-25T17:35:55.404Z,100379.64
2022-09-25T17:38:26.926Z,100379.02
2022-09-25T17:41:03.204Z,100381.60
2022-09-25T17:43:35.917Z,100383.55
2022-09-25T17:46:06.881Z,100384.68
2022-09-25T17:48:37.157Z,100385.77
2022-09-25T17:51:13.911Z,100387.02
2022-09-25T17:53:44.700Z,100381.31
2022-09-25T17:56:15.532Z,100386.49
2022-09-25T17:58:45.978Z,100383.05
2022-09-25T18:01:21.826Z,100389.23
2022-09-25T18:03:52.737Z,100385.80
2022-09-25T18:06:23.860Z,100388.17
2022-09-25T18:08:54.974Z,100386.30
2022-09-25T18:11:26.401Z,100382.83
2022-09-25T18:14:01.076Z,100383.14
2022-09-25T18:16:33.400Z,100384.66
2022-09-25T18:19:21.565Z,100384.44
2022-09-25T18:22:09.610Z,100385.27
2022-09-25T18:24:39.931Z,100380.59
2022-09-25T18:27:10.424Z,100379.03
2022-09-25T18:29:40.554Z,100376.27
2022-09-25T18:32:10.689Z,100376.29
2022-09-25T18:34:40.984Z,100376.99
2022-09-25T18:37:11.778Z,100370.90
2022-09-25T18:39:42.235Z,100367.41
2022-09-25T18:42:12.553Z,100369.59
2022-09-25T18:44:43.426Z,100365.66
2022-09-25T18:47:14.369Z,100364.72
2022-09-25T18:49:45.340Z,100370.70
2022-09-25T18:52:16.718Z,100370.90
2022-09-25T18:54:47.131Z,100377.56
2022-09-25T18:57:18.312Z,100383.05
2022-09-25T18:59:48.432Z,100379.66
2022-09-25T19:02:22.514Z,100381.86
2022-09-25T19:04:54.973Z,100380.80
2022-09-25T19:07:26.558Z,100375.25
2022-09-25T19:09:58.520Z,100374.87
2022-09-25T19:12:28.813Z,100371.60
2022-09-25T19:14:59.226Z,100371.58
2022-09-25T19:17:29.419Z,100365.27
2022-09-25T19:20:00.133Z,100363.05
2022-09-25T19:22:30.278Z,100362.89
2022-09-25T19:25:00.712Z,100360.00
2022-09-25T19:27:31.667Z,100362.15
2022-09-25T19:30:01.815Z,100362.15
2022-09-25T19:32:32.045Z,100368.02
2022-09-25T19:35:02.404Z,100365.27
2022-09-25T19:37:32.976Z,100365.84
2022-09-25T19:40:21.065Z,100366.62
2022-09-25T19:42:51.299Z,100366.66
2022-09-25T19:45:22.180Z,100366.19
2022-09-25T19:47:52.812Z,100361.80
2022-09-25T19:50:23.316Z,100364.89
2022-09-25T19:52:54.680Z,100361.25
2022-09-25T19:55:25.044Z,100356.01
2022-09-25T19:57:55.707Z,100352.42
2022-09-25T20:00:25.856Z,100352.13
2022-09-25T20:02:56.789Z,100351.06
2022-09-25T20:05:27.190Z,100346.70
2022-09-25T20:07:57.681Z,100349.98
2022-09-25T20:10:30.024Z,100347.69
2022-09-25T20:13:00.151Z,100345.23
2022-09-25T20:15:31.492Z,100347.24
2022-09-25T20:18:02.565Z,100344.06
2022-09-25T20:20:32.789Z,100343.21
2022-09-25T20:23:03.036Z,100338.58
2022-09-25T20:25:33.180Z,100335.95
2022-09-25T20:28:03.720Z,100334.58
2022-09-25T20:30:35.690Z,100333.06
2022-09-25T20:33:06.313Z,100333.23
2022-09-25T20:35:37.462Z,100330.25
2022-09-25T20:38:11.009Z,100324.77
2022-09-25T20:40:42.129Z,100320.19
2022-09-25T20:43:12.552Z,100314.75
2022-09-25T20:45:42.850Z,100314.16
2022-09-25T20:48:13.496Z,100310.52
2022-09-25T20:50:51.802Z,100307.80
2022-09-25T20:53:22.960Z,100314.32
2022-09-25T20:55:53.164Z,100316.88
2022-09-25T20:58:23.355Z,100320.13
2022-09-25T21:00:53.832Z,100318.05
2022-09-25T21:03:23.955Z,100314.95
2022-09-25T21:05:54.176Z,100312.60
2022-09-25T21:08:25.821Z,100311.30
2022-09-25T21:10:56.248Z,100313.55
2022-09-25T21:13:27.193Z,100314.85
2022-09-25T21:16:05.382Z,100315.53
2022-09-25T21:18:36.427Z,100311.42
2022-09-25T21:21:08.673Z,100307.40
2022-09-25T21:23:39.700Z,100306.50
2022-09-25T21:26:12.014Z,100302.36
2022-09-25T21:28:43.537Z,100304.36
2022-09-25T21:31:16.169Z,100304.02
2022-09-25T21:33:46.771Z,100301.39
2022-09-25T21:36:18.385Z,100303.66
2022-09-25T21:38:49.934Z,100304.76
2022-09-25T21:41:22.531Z,100300.13
2022-09-25T21:43:55.306Z,100294.42
2022-09-25T21:46:26.788Z,100290.38
2022-09-25T21:48:59.123Z,100286.56
2022-09-25T21:51:31.288Z,100283.01
2022-09-25T21:54:02.186Z,100285.87
2022-09-25T21:56:33.112Z,100281.63
2022-09-25T21:59:08.336Z,100277.21
2022-09-25T22:01:40.619Z,100275.66
2022-09-25T22:04:14.398Z,100269.28
2022-09-25T22:06:46.981Z,100270.00
2022-09-25T22:09:20.932Z,100267.88
2022-09-25T22:11:51.535Z,100262.56
2022-09-25T22:14:22.521Z,100262.01
2022-09-25T22:16:53.686Z,100261.79
2022-09-25T22:19:26.844Z,100260.92
2022-09-25T22:21:59.264Z,100261.45
2022-09-25T22:24:29.458Z,100263.59
2022-09-25T22:26:59.642Z,100261.30
2022-09-25T22:29:29.863Z,100256.84
2022-09-25T22:32:00.353Z,100255.14
2022-09-25T22:34:31.340Z,100251.91
2022-09-25T22:37:01.593Z,100255.04
2022-09-25T22:39:31.930Z,100252.79
2022-09-25T22:42:02.371Z,100250.98
2022-09-25T22:44:32.735Z,100249.84
2022-09-25T22:47:04.114Z,100252.45
2022-09-25T22:49:34.554Z,100251.92
2022-09-25T22:52:05.333Z,100250.73
2022-09-25T22:54:36.103Z,100250.61
2022-09-25T22:57:06.209Z,100252.91
2022-09-25T22:59:36.683Z,100252.17
2022-09-25T23:02:07.125Z,100251.20
2022-09-25T23:04:37.251Z,100252.01
2022-09-25T23:07:07.374Z,100253.27
2022-09-25T23:09:38.084Z,100248.61
2022-09-25T23:12:08.260Z,100247.86
2022-09-25T23:14:38.386Z,100244.13
2022-09-25T23:17:08.557Z,100241.11
2022-09-25T23:19:39.257Z,100235.79
2022-09-25T23:22:09.974Z,100237.39
2022-09-25T23:24:40.601Z,100237.39
2022-09-25T23:27:11.241Z,100230.96
2022-09-25T23:29:41.462Z,100234.27
2022-09-25T23:32:11.563Z,100228.20
2022-09-25T23:34:42.415Z,100221.61
2022-09-25T23:37:13.598Z,100217.75
2022-09-25T23:39:43.977Z,100216.54
2022-09-25T23:42:14.083Z,100212.31
2022-09-25T23:44:44.591Z,100208.48
2022-09-25T23:47:14.795Z,100207.45
2022-09-25T23:49:45.238Z,100209.05
2022-09-25T23:52:15.345Z,100209.98
2022-09-25T23:54:47.244Z,100204.28
2022-09-25T23:57:18.100Z,100204.28
2022-09-25T23:59:48.212Z,100203.82
